Weather at Munich Airport

Public forecast

Using degrees Celsius for public forecast. Weather courtesy of forecast.io.

Current aviation weather report (METAR) for Munich Airport

Retrieved 2020/11/25 21:20 UTC (0 seconds ago):

EDDM 252120Z 10003KT 040V150 1200 R08L/P2000N R08R/P2000N BR BKN001 OVC002 M00/M01 Q1022 NOSIG

Aviation forecast (TAF) for Munich Airport

Retrieved 2020/11/25 18:27 UTC (3 hours ago):

TAF EDDM 251700Z 2518/2624 VRB03KT 7000 OVC003 BECMG 2518/2521 4000 BR PROB30 TEMPO 2521/2608 0600 FZFG VV001 BECMG 2608/2611 8000 BECMG 2611/2613 BKN005 PROB40 TEMPO 2613/2616 SCT006 BECMG 2616/2619 1500 BCFG PROB40 TEMPO 2618/2624 0400 FZFG VV001